createdAt,value
2022-08-11T00:03:42.462Z,9.23
2022-08-11T00:08:51.028Z,8.23
2022-08-11T00:13:52.791Z,8.02
2022-08-11T00:18:56.637Z,7.53
2022-08-11T00:24:02.152Z,6.05
2022-08-11T00:29:11.962Z,7.43
2022-08-11T00:34:16.866Z,8.55
2022-08-11T00:39:22.159Z,7.32
2022-08-11T00:45:01.154Z,7.45
2022-08-11T00:50:06.984Z,8.85
2022-08-11T00:55:55.695Z,10.45
2022-08-11T01:01:15.968Z,8.60
2022-08-11T01:11:22.008Z,9.32
2022-08-11T01:16:51.802Z,8.23
2022-08-11T01:22:30.730Z,9.80
2022-08-11T01:27:53.635Z,9.15
2022-08-11T01:33:23.311Z,7.80
2022-08-11T01:38:43.239Z,7.87
2022-08-11T01:50:05.734Z,9.15
2022-08-11T01:55:32.968Z,9.95
2022-08-11T02:00:48.657Z,8.35
2022-08-11T02:06:24.790Z,11.88
2022-08-11T02:11:37.263Z,10.52
2022-08-11T02:16:59.005Z,9.85
2022-08-11T02:22:24.934Z,11.55
2022-08-11T02:27:41.021Z,19.23
2022-08-11T02:33:17.449Z,16.08
2022-08-11T02:38:47.743Z,11.13
2022-08-11T02:44:04.399Z,8.65
2022-08-11T02:50:06.726Z,10.48
2022-08-11T02:55:48.945Z,11.35
2022-08-11T03:01:18.274Z,10.43
2022-08-11T03:06:26.324Z,13.80
2022-08-11T03:12:05.042Z,7.88
2022-08-11T03:17:30.947Z,11.18
2022-08-11T03:22:56.650Z,9.43
2022-08-11T03:28:10.006Z,9.95
2022-08-11T03:33:46.416Z,10.27
2022-08-11T03:39:26.357Z,10.05
2022-08-11T03:44:38.026Z,11.97
2022-08-11T03:50:24.981Z,10.38
2022-08-11T03:55:55.505Z,9.52
2022-08-11T04:06:22.315Z,12.15
2022-08-11T04:11:49.301Z,10.43
2022-08-11T04:17:28.466Z,9.95
2022-08-11T04:22:55.171Z,10.70
2022-08-11T04:28:08.472Z,8.45
2022-08-11T04:33:54.821Z,11.43
2022-08-11T04:39:29.481Z,16.05
2022-08-11T04:45:10.934Z,18.60
2022-08-11T04:51:08.907Z,15.73
2022-08-11T04:56:31.647Z,17.67
2022-08-11T05:01:41.869Z,14.20
2022-08-11T05:07:07.856Z,12.77
2022-08-11T05:12:36.480Z,22.15
2022-08-11T05:18:18.198Z,10.65
2022-08-11T05:23:44.195Z,12.93
2022-08-11T05:29:19.866Z,13.30
2022-08-11T05:34:45.026Z,8.75
2022-08-11T05:40:11.874Z,11.85
2022-08-11T05:45:58.664Z,14.05
2022-08-11T05:51:17.554Z,9.10
2022-08-11T05:56:19.918Z,13.65
2022-08-11T06:01:24.826Z,10.70
2022-08-11T06:06:27.354Z,14.85
2022-08-11T06:11:42.851Z,11.43
2022-08-11T06:16:49.621Z,8.48
2022-08-11T06:21:53.103Z,10.50
2022-08-11T06:27:11.625Z,10.70
2022-08-11T06:32:15.572Z,9.18
2022-08-11T06:37:45.014Z,9.90
2022-08-11T06:42:54.783Z,8.87
2022-08-11T06:48:00.950Z,11.13
2022-08-11T06:53:05.753Z,11.27
2022-08-11T06:58:32.738Z,10.30
2022-08-11T07:03:38.243Z,7.15
2022-08-11T07:09:24.738Z,10.50
2022-08-11T07:14:48.826Z,7.68
2022-08-11T07:20:16.670Z,7.80
2022-08-11T07:25:37.306Z,5.43
2022-08-11T07:30:41.606Z,11.80
2022-08-11T07:35:48.385Z,8.77
2022-08-11T07:40:50.988Z,7.78
2022-08-11T07:46:11.376Z,5.15
2022-08-11T07:51:37.627Z,6.72
2022-08-11T07:56:54.260Z,5.90
2022-08-11T08:02:15.196Z,10.27
2022-08-11T08:07:39.912Z,5.53
2022-08-11T08:13:00.882Z,7.15
2022-08-11T08:18:09.190Z,4.50
2022-08-11T08:23:34.143Z,4.65
2022-08-11T08:28:36.422Z,10.00
2022-08-11T08:33:42.378Z,5.50
2022-08-11T08:38:49.775Z,5.75
2022-08-11T08:43:56.407Z,6.03
2022-08-11T08:49:02.998Z,4.60
2022-08-11T08:54:09.322Z,7.53
2022-08-11T08:59:13.681Z,3.30
2022-08-11T09:04:20.908Z,5.57
2022-08-11T09:09:23.530Z,4.30
2022-08-11T09:15:01.898Z,5.75
2022-08-11T09:20:20.451Z,9.73
2022-08-11T09:25:44.037Z,4.90
2022-08-11T09:30:53.470Z,5.10
2022-08-11T09:35:55.909Z,2.17
2022-08-11T09:40:59.975Z,2.03
2022-08-11T09:46:02.560Z,3.35
2022-08-11T09:51:05.430Z,4.25
2022-08-11T09:56:30.746Z,5.20
2022-08-11T10:01:37.731Z,3.35
2022-08-11T10:06:58.655Z,1.87
2022-08-11T10:12:03.039Z,3.13
2022-08-11T10:17:07.941Z,5.50
2022-08-11T10:22:28.564Z,5.15
2022-08-11T10:28:28.178Z,3.88
2022-08-11T10:33:36.792Z,3.65
2022-08-11T10:38:39.310Z,5.32
2022-08-11T10:44:01.652Z,2.60
2022-08-11T10:49:04.581Z,4.00
2022-08-11T10:54:25.617Z,4.28
2022-08-11T10:59:30.443Z,4.18
2022-08-11T11:04:59.975Z,4.15
2022-08-11T11:10:04.852Z,4.18
2022-08-11T11:15:26.066Z,4.90
2022-08-11T11:20:48.531Z,5.57
2022-08-11T11:26:27.114Z,3.95
2022-08-11T11:31:36.266Z,3.28
2022-08-11T11:37:00.181Z,5.43
2022-08-11T11:42:08.224Z,4.22
2022-08-11T11:47:12.180Z,3.72
2022-08-11T11:52:19.025Z,5.07
2022-08-11T11:57:41.013Z,8.03
2022-08-11T12:02:43.414Z,3.92
2022-08-11T12:08:10.550Z,5.18
2022-08-11T12:13:37.118Z,4.78
2022-08-11T12:18:40.673Z,2.35
2022-08-11T12:24:04.679Z,4.03
2022-08-11T12:29:09.739Z,4.10
2022-08-11T12:34:14.685Z,5.07
2022-08-11T12:40:17.187Z,4.25
2022-08-11T12:45:28.247Z,6.10
2022-08-11T12:50:49.498Z,4.95
2022-08-11T12:56:11.840Z,4.65
2022-08-11T13:01:32.324Z,3.40
2022-08-11T13:06:34.318Z,5.88
2022-08-11T13:11:57.630Z,3.70
2022-08-11T13:17:19.207Z,2.95
2022-08-11T13:22:24.314Z,3.67
2022-08-11T13:27:26.827Z,3.10
2022-08-11T13:32:29.078Z,3.13
2022-08-11T13:38:17.302Z,3.35
2022-08-11T13:42:53.840Z,2.95
2022-08-11T13:47:57.438Z,2.53
2022-08-11T13:52:59.911Z,3.65
2022-08-11T13:58:06.562Z,4.78
2022-08-11T14:03:25.902Z,2.38
2022-08-11T14:08:50.376Z,2.28
2022-08-11T14:13:53.422Z,1.95
2022-08-11T14:19:00.307Z,3.30
2022-08-11T14:24:05.101Z,2.53
2022-08-11T14:29:16.077Z,3.03
2022-08-11T14:34:24.509Z,2.65
2022-08-11T14:39:35.477Z,2.85
2022-08-11T14:44:56.745Z,5.47
2022-08-11T14:50:11.587Z,3.13
2022-08-11T14:55:33.631Z,2.95
2022-08-11T15:00:35.905Z,4.50
2022-08-11T15:05:56.305Z,6.88
2022-08-11T15:10:59.461Z,2.33
2022-08-11T15:16:19.773Z,3.45
2022-08-11T15:21:40.312Z,1.33
2022-08-11T15:27:01.521Z,6.47
2022-08-11T15:32:21.829Z,2.38
2022-08-11T15:37:31.374Z,3.22
2022-08-11T15:42:53.685Z,3.13
2022-08-11T15:48:05.224Z,10.40
2022-08-11T15:53:38.878Z,3.47
2022-08-11T15:59:43.106Z,3.63
2022-08-11T16:04:48.644Z,6.93
2022-08-11T16:10:09.259Z,7.45
2022-08-11T16:15:30.619Z,5.22
2022-08-11T16:20:34.960Z,3.88
2022-08-11T16:27:03.506Z,2.55
2022-08-11T16:30:59.664Z,6.28
2022-08-11T16:36:21.564Z,5.45
2022-08-11T16:41:44.639Z,2.60
2022-08-11T16:46:58.879Z,5.45
2022-08-11T16:52:03.899Z,5.55
2022-08-11T16:57:40.055Z,2.53
2022-08-11T17:03:11.369Z,5.22
2022-08-11T17:08:33.491Z,7.47
2022-08-11T17:13:51.996Z,5.55
2022-08-11T17:19:18.676Z,9.27
2022-08-11T17:24:48.151Z,4.22
2022-08-11T17:29:55.559Z,5.43
2022-08-11T17:35:20.335Z,7.03
2022-08-11T17:40:24.502Z,6.30
2022-08-11T17:45:46.056Z,4.38
2022-08-11T17:50:49.960Z,3.55
2022-08-11T17:56:11.044Z,3.42
2022-08-11T18:01:13.948Z,4.97
2022-08-11T18:06:18.590Z,5.35
2022-08-11T18:12:06.756Z,3.90
2022-08-11T18:17:21.116Z,9.18
2022-08-11T18:22:49.712Z,5.75
2022-08-11T18:28:13.481Z,6.63
2022-08-11T18:39:16.686Z,3.63
2022-08-11T18:44:39.034Z,5.38
2022-08-11T18:50:05.415Z,8.50
2022-08-11T18:55:33.058Z,4.78
2022-08-11T19:00:56.117Z,6.15
2022-08-11T19:06:38.931Z,8.80
2022-08-11T19:12:03.741Z,4.93
2022-08-11T19:17:44.586Z,5.18
2022-08-11T19:23:07.820Z,12.27
2022-08-11T19:28:28.022Z,5.00
2022-08-11T19:34:02.714Z,6.10
2022-08-11T19:39:31.911Z,6.03
2022-08-11T19:44:53.528Z,3.35
2022-08-11T19:50:20.174Z,3.67
2022-08-11T19:55:45.981Z,5.72
2022-08-11T20:01:07.243Z,8.82
2022-08-11T20:06:29.696Z,4.45
2022-08-11T20:11:55.824Z,5.85
2022-08-11T20:17:18.538Z,5.30
2022-08-11T20:22:39.948Z,2.80
2022-08-11T20:28:03.943Z,3.47
2022-08-11T20:33:26.237Z,4.85
2022-08-11T20:38:49.760Z,2.70
2022-08-11T20:44:11.201Z,10.02
2022-08-11T20:49:47.848Z,2.20
2022-08-11T20:55:19.307Z,4.97
2022-08-11T21:00:47.293Z,8.90
2022-08-11T21:06:11.135Z,6.32
2022-08-11T21:11:33.775Z,6.35
2022-08-11T21:16:56.262Z,7.20
2022-08-11T21:22:21.291Z,3.88
2022-08-11T21:27:52.012Z,7.70
2022-08-11T21:33:13.660Z,4.43
2022-08-11T21:38:36.433Z,6.90
2022-08-11T21:43:58.557Z,5.07
2022-08-11T21:49:21.697Z,3.22
2022-08-11T21:54:44.459Z,5.25
2022-08-11T22:00:14.257Z,7.60
2022-08-11T22:05:36.168Z,3.90
2022-08-11T22:10:56.984Z,3.03
2022-08-11T22:16:19.003Z,7.43
2022-08-11T22:22:02.623Z,6.07
2022-08-11T22:27:20.847Z,8.38
2022-08-11T22:32:42.169Z,6.07
2022-08-11T22:38:05.344Z,7.20
2022-08-11T22:43:26.110Z,15.57
2022-08-11T22:48:48.347Z,5.47
2022-08-11T22:54:10.165Z,10.45
2022-08-11T22:59:32.027Z,9.45
2022-08-11T23:04:53.305Z,4.60
2022-08-11T23:10:14.868Z,8.50
2022-08-11T23:15:39.187Z,4.88
2022-08-11T23:21:01.368Z,6.78
2022-08-11T23:26:23.364Z,6.43
2022-08-11T23:31:51.400Z,6.40
2022-08-11T23:37:13.565Z,9.48
2022-08-11T23:42:36.101Z,5.78
2022-08-11T23:47:57.800Z,10.35
2022-08-11T23:53:18.830Z,7.78
2022-08-11T23:58:39.393Z,8.50
